sensor_id;sensor_type;location;lat;lon;timestamp;P1;P2;P0
54869;PMS5003;40756;-37.950;145.008;2022-08-19T00:02:16;1;0;
54869;PMS5003;40756;-37.950;145.008;2022-08-19T00:04:46;2;2;
54869;PMS5003;40756;-37.950;145.008;2022-08-19T00:07:15;1;1;
54869;PMS5003;40756;-37.950;145.008;2022-08-19T00:09:45;2;2;
54869;PMS5003;40756;-37.950;145.008;2022-08-19T00:12:15;3;3;
54869;PMS5003;40756;-37.950;145.008;2022-08-19T00:14:45;1;1;
54869;PMS5003;40756;-37.950;145.008;2022-08-19T00:17:15;19;18;
54869;PMS5003;40756;-37.950;145.008;2022-08-19T00:19:46;17;17;
54869;PMS5003;40756;-37.950;145.008;2022-08-19T00:22:16;4;4;
54869;PMS5003;40756;-37.950;145.008;2022-08-19T00:24:45;3;3;
54869;PMS5003;40756;-37.950;145.008;2022-08-19T00:27:15;2;2;
54869;PMS5003;40756;-37.950;145.008;2022-08-19T00:29:45;3;2;
54869;PMS5003;40756;-37.950;145.008;2022-08-19T00:32:14;2;2;
54869;PMS5003;40756;-37.950;145.008;2022-08-19T00:34:44;3;3;
54869;PMS5003;40756;-37.950;145.008;2022-08-19T00:37:14;1;1;
54869;PMS5003;40756;-37.950;145.008;2022-08-19T00:39:43;2;1;
54869;PMS5003;40756;-37.950;145.008;2022-08-19T00:42:13;1;1;
54869;PMS5003;40756;-37.950;145.008;2022-08-19T00:44:43;1;0;
54869;PMS5003;40756;-37.950;145.008;2022-08-19T00:47:13;0;0;
54869;PMS5003;40756;-37.950;145.008;2022-08-19T00:49:44;2;1;
54869;PMS5003;40756;-37.950;145.008;2022-08-19T00:52:20;2;0;
54869;PMS5003;40756;-37.950;145.008;2022-08-19T00:54:52;2;1;
54869;PMS5003;40756;-37.950;145.008;2022-08-19T00:57:24;2;1;
54869;PMS5003;40756;-37.950;145.008;2022-08-19T00:59:58;3;2;
54869;PMS5003;40756;-37.950;145.008;2022-08-19T01:02:30;1;1;
54869;PMS5003;40756;-37.950;145.008;2022-08-19T01:05:01;2;2;
54869;PMS5003;40756;-37.950;145.008;2022-08-19T01:07:34;0;0;
54869;PMS5003;40756;-37.950;145.008;2022-08-19T01:10:07;3;2;
54869;PMS5003;40756;-37.950;145.008;2022-08-19T01:12:42;1;1;
54869;PMS5003;40756;-37.950;145.008;2022-08-19T01:15:12;0;0;
54869;PMS5003;40756;-37.950;145.008;2022-08-19T01:17:49;0;0;
54869;PMS5003;40756;-37.950;145.008;2022-08-19T01:20:23;3;2;
54869;PMS5003;40756;-37.950;145.008;2022-08-19T01:22:54;1;1;
54869;PMS5003;40756;-37.950;145.008;2022-08-19T01:25:28;2;2;
54869;PMS5003;40756;-37.950;145.008;2022-08-19T01:28:02;2;2;
54869;PMS5003;40756;-37.950;145.008;2022-08-19T01:30:34;1;0;
54869;PMS5003;40756;-37.950;145.008;2022-08-19T01:33:03;1;1;
54869;PMS5003;40756;-37.950;145.008;2022-08-19T01:35:33;0;0;
54869;PMS5003;40756;-37.950;145.008;2022-08-19T01:38:06;1;1;
54869;PMS5003;40756;-37.950;145.008;2022-08-19T01:40:37;1;1;
54869;PMS5003;40756;-37.950;145.008;2022-08-19T01:43:07;0;0;
54869;PMS5003;40756;-37.950;145.008;2022-08-19T01:45:37;4;2;
54869;PMS5003;40756;-37.950;145.008;2022-08-19T01:48:07;1;1;
54869;PMS5003;40756;-37.950;145.008;2022-08-19T01:50:37;0;0;
54869;PMS5003;40756;-37.950;145.008;2022-08-19T01:53:09;2;1;
54869;PMS5003;40756;-37.950;145.008;2022-08-19T01:55:40;1;1;
54869;PMS5003;40756;-37.950;145.008;2022-08-19T01:58:11;0;0;
54869;PMS5003;40756;-37.950;145.008;2022-08-19T02:00:43;0;0;
54869;PMS5003;40756;-37.950;145.008;2022-08-19T02:03:12;2;0;
54869;PMS5003;40756;-37.950;145.008;2022-08-19T02:05:42;0;0;
54869;PMS5003;40756;-37.950;145.008;2022-08-19T02:08:12;2;1;
54869;PMS5003;40756;-37.950;145.008;2022-08-19T02:10:43;4;2;
54869;PMS5003;40756;-37.950;145.008;2022-08-19T02:13:13;2;1;
54869;PMS5003;40756;-37.950;145.008;2022-08-19T02:15:43;1;1;
54869;PMS5003;40756;-37.950;145.008;2022-08-19T02:18:13;2;1;
54869;PMS5003;40756;-37.950;145.008;2022-08-19T02:20:43;3;2;
54869;PMS5003;40756;-37.950;145.008;2022-08-19T02:23:13;2;2;
54869;PMS5003;40756;-37.950;145.008;2022-08-19T02:25:45;4;3;
54869;PMS5003;40756;-37.950;145.008;2022-08-19T02:28:16;2;1;
54869;PMS5003;40756;-37.950;145.008;2022-08-19T02:30:47;1;1;
54869;PMS5003;40756;-37.950;145.008;2022-08-19T02:33:16;2;2;
54869;PMS5003;40756;-37.950;145.008;2022-08-19T02:35:46;1;1;
54869;PMS5003;40756;-37.950;145.008;2022-08-19T02:38:15;1;1;
54869;PMS5003;40756;-37.950;145.008;2022-08-19T02:40:48;1;1;
54869;PMS5003;40756;-37.950;145.008;2022-08-19T02:43:19;0;0;
54869;PMS5003;40756;-37.950;145.008;2022-08-19T02:45:49;0;0;
54869;PMS5003;40756;-37.950;145.008;2022-08-19T02:48:20;2;1;
54869;PMS5003;40756;-37.950;145.008;2022-08-19T02:50:52;0;0;
54869;PMS5003;40756;-37.950;145.008;2022-08-19T02:53:23;1;1;
54869;PMS5003;40756;-37.950;145.008;2022-08-19T02:55:54;0;0;
54869;PMS5003;40756;-37.950;145.008;2022-08-19T02:58:24;1;0;
54869;PMS5003;40756;-37.950;145.008;2022-08-19T03:00:54;1;1;
54869;PMS5003;40756;-37.950;145.008;2022-08-19T03:03:24;1;1;
54869;PMS5003;40756;-37.950;145.008;2022-08-19T03:06:03;1;1;
54869;PMS5003;40756;-37.950;145.008;2022-08-19T03:08:34;1;1;
54869;PMS5003;40756;-37.950;145.008;2022-08-19T03:11:04;2;1;
54869;PMS5003;40756;-37.950;145.008;2022-08-19T03:13:39;2;0;
54869;PMS5003;40756;-37.950;145.008;2022-08-19T03:16:09;2;0;
54869;PMS5003;40756;-37.950;145.008;2022-08-19T03:18:40;0;0;
54869;PMS5003;40756;-37.950;145.008;2022-08-19T03:21:14;1;1;
54869;PMS5003;40756;-37.950;145.008;2022-08-19T03:23:44;1;0;
54869;PMS5003;40756;-37.950;145.008;2022-08-19T03:26:15;2;1;
54869;PMS5003;40756;-37.950;145.008;2022-08-19T03:28:44;1;0;
54869;PMS5003;40756;-37.950;145.008;2022-08-19T03:31:14;0;0;
54869;PMS5003;40756;-37.950;145.008;2022-08-19T03:33:45;2;2;
54869;PMS5003;40756;-37.950;145.008;2022-08-19T03:36:16;0;0;
54869;PMS5003;40756;-37.950;145.008;2022-08-19T03:38:48;1;1;
54869;PMS5003;40756;-37.950;145.008;2022-08-19T03:41:20;1;0;
54869;PMS5003;40756;-37.950;145.008;2022-08-19T03:43:53;3;3;
54869;PMS5003;40756;-37.950;145.008;2022-08-19T03:46:23;4;3;
54869;PMS5003;40756;-37.950;145.008;2022-08-19T03:48:56;2;0;
54869;PMS5003;40756;-37.950;145.008;2022-08-19T03:51:28;13;13;
54869;PMS5003;40756;-37.950;145.008;2022-08-19T03:54:01;1;1;
54869;PMS5003;40756;-37.950;145.008;2022-08-19T03:56:34;1;1;
54869;PMS5003;40756;-37.950;145.008;2022-08-19T03:59:07;1;1;
54869;PMS5003;40756;-37.950;145.008;2022-08-19T04:01:38;2;2;
54869;PMS5003;40756;-37.950;145.008;2022-08-19T04:04:08;2;1;
54869;PMS5003;40756;-37.950;145.008;2022-08-19T04:06:38;2;2;
54869;PMS5003;40756;-37.950;145.008;2022-08-19T04:09:09;2;2;
54869;PMS5003;40756;-37.950;145.008;2022-08-19T04:11:39;2;1;
54869;PMS5003;40756;-37.950;145.008;2022-08-19T04:14:14;1;0;
54869;PMS5003;40756;-37.950;145.008;2022-08-19T04:16:47;1;0;
54869;PMS5003;40756;-37.950;145.008;2022-08-19T04:19:18;2;1;
54869;PMS5003;40756;-37.950;145.008;2022-08-19T04:21:50;3;2;
54869;PMS5003;40756;-37.950;145.008;2022-08-19T04:24:21;0;0;
54869;PMS5003;40756;-37.950;145.008;2022-08-19T04:26:51;1;1;
54869;PMS5003;40756;-37.950;145.008;2022-08-19T04:29:22;0;0;
54869;PMS5003;40756;-37.950;145.008;2022-08-19T04:31:53;1;1;
54869;PMS5003;40756;-37.950;145.008;2022-08-19T04:34:24;1;0;
54869;PMS5003;40756;-37.950;145.008;2022-08-19T04:36:56;0;0;
54869;PMS5003;40756;-37.950;145.008;2022-08-19T04:39:28;3;1;
54869;PMS5003;40756;-37.950;145.008;2022-08-19T04:41:58;2;1;
54869;PMS5003;40756;-37.950;145.008;2022-08-19T04:44:28;0;0;
54869;PMS5003;40756;-37.950;145.008;2022-08-19T04:46:58;2;1;
54869;PMS5003;40756;-37.950;145.008;2022-08-19T04:49:28;1;0;
54869;PMS5003;40756;-37.950;145.008;2022-08-19T04:51:58;0;0;
54869;PMS5003;40756;-37.950;145.008;2022-08-19T04:54:27;0;0;
54869;PMS5003;40756;-37.950;145.008;2022-08-19T04:56:57;0;0;
54869;PMS5003;40756;-37.950;145.008;2022-08-19T04:59:26;1;1;
54869;PMS5003;40756;-37.950;145.008;2022-08-19T05:01:55;2;1;
54869;PMS5003;40756;-37.950;145.008;2022-08-19T05:04:25;0;0;
54869;PMS5003;40756;-37.950;145.008;2022-08-19T05:06:55;1;0;
54869;PMS5003;40756;-37.950;145.008;2022-08-19T05:09:24;1;0;
54869;PMS5003;40756;-37.950;145.008;2022-08-19T05:11:53;1;1;
54869;PMS5003;40756;-37.950;145.008;2022-08-19T05:14:23;1;0;
54869;PMS5003;40756;-37.950;145.008;2022-08-19T05:16:52;1;0;
54869;PMS5003;40756;-37.950;145.008;2022-08-19T05:19:22;0;0;
54869;PMS5003;40756;-37.950;145.008;2022-08-19T05:21:53;0;0;
54869;PMS5003;40756;-37.950;145.008;2022-08-19T05:24:23;2;1;
54869;PMS5003;40756;-37.950;145.008;2022-08-19T05:26:54;0;0;
54869;PMS5003;40756;-37.950;145.008;2022-08-19T05:29:24;2;1;
54869;PMS5003;40756;-37.950;145.008;2022-08-19T05:31:55;1;0;
54869;PMS5003;40756;-37.950;145.008;2022-08-19T05:34:25;2;1;
54869;PMS5003;40756;-37.950;145.008;2022-08-19T05:36:56;1;0;
54869;PMS5003;40756;-37.950;145.008;2022-08-19T05:39:27;1;1;
54869;PMS5003;40756;-37.950;145.008;2022-08-19T05:41:59;2;1;
54869;PMS5003;40756;-37.950;145.008;2022-08-19T05:44:31;0;0;
54869;PMS5003;40756;-37.950;145.008;2022-08-19T05:47:04;3;3;
54869;PMS5003;40756;-37.950;145.008;2022-08-19T05:49:36;2;2;
54869;PMS5003;40756;-37.950;145.008;2022-08-19T05:52:07;1;1;
54869;PMS5003;40756;-37.950;145.008;2022-08-19T05:54:38;1;1;
54869;PMS5003;40756;-37.950;145.008;2022-08-19T05:57:08;0;0;
54869;PMS5003;40756;-37.950;145.008;2022-08-19T05:59:38;2;2;
54869;PMS5003;40756;-37.950;145.008;2022-08-19T06:02:08;0;0;
54869;PMS5003;40756;-37.950;145.008;2022-08-19T06:04:37;2;1;
54869;PMS5003;40756;-37.950;145.008;2022-08-19T06:07:07;2;2;
54869;PMS5003;40756;-37.950;145.008;2022-08-19T06:09:37;2;2;
54869;PMS5003;40756;-37.950;145.008;2022-08-19T06:12:07;0;0;
54869;PMS5003;40756;-37.950;145.008;2022-08-19T06:14:37;1;0;
54869;PMS5003;40756;-37.950;145.008;2022-08-19T06:17:06;2;1;
54869;PMS5003;40756;-37.950;145.008;2022-08-19T06:19:36;1;1;
54869;PMS5003;40756;-37.950;145.008;2022-08-19T06:22:07;2;0;
54869;PMS5003;40756;-37.950;145.008;2022-08-19T06:24:36;1;0;
54869;PMS5003;40756;-37.950;145.008;2022-08-19T06:27:06;1;1;
54869;PMS5003;40756;-37.950;145.008;2022-08-19T06:29:36;0;0;
54869;PMS5003;40756;-37.950;145.008;2022-08-19T06:32:06;0;0;
54869;PMS5003;40756;-37.950;145.008;2022-08-19T06:34:35;1;1;
54869;PMS5003;40756;-37.950;145.008;2022-08-19T06:37:05;0;0;
54869;PMS5003;40756;-37.950;145.008;2022-08-19T06:39:35;1;1;
54869;PMS5003;40756;-37.950;145.008;2022-08-19T06:42:06;1;0;
54869;PMS5003;40756;-37.950;145.008;2022-08-19T06:44:39;1;1;
54869;PMS5003;40756;-37.950;145.008;2022-08-19T06:47:11;1;0;
54869;PMS5003;40756;-37.950;145.008;2022-08-19T06:49:44;0;0;
54869;PMS5003;40756;-37.950;145.008;2022-08-19T06:52:14;2;2;
54869;PMS5003;40756;-37.950;145.008;2022-08-19T06:54:43;2;2;
54869;PMS5003;40756;-37.950;145.008;2022-08-19T06:57:13;1;1;
54869;PMS5003;40756;-37.950;145.008;2022-08-19T06:59:42;2;1;
54869;PMS5003;40756;-37.950;145.008;2022-08-19T07:02:12;1;1;
54869;PMS5003;40756;-37.950;145.008;2022-08-19T07:04:42;2;1;
54869;PMS5003;40756;-37.950;145.008;2022-08-19T07:07:13;2;2;
54869;PMS5003;40756;-37.950;145.008;2022-08-19T07:09:43;2;2;
54869;PMS5003;40756;-37.950;145.008;2022-08-19T07:12:13;2;1;
54869;PMS5003;40756;-37.950;145.008;2022-08-19T07:14:44;3;1;
54869;PMS5003;40756;-37.950;145.008;2022-08-19T07:17:13;1;0;
54869;PMS5003;40756;-37.950;145.008;2022-08-19T07:19:43;2;2;
54869;PMS5003;40756;-37.950;145.008;2022-08-19T07:22:14;1;1;
54869;PMS5003;40756;-37.950;145.008;2022-08-19T07:24:44;3;2;
54869;PMS5003;40756;-37.950;145.008;2022-08-19T07:27:14;1;0;
54869;PMS5003;40756;-37.950;145.008;2022-08-19T07:29:43;1;1;
54869;PMS5003;40756;-37.950;145.008;2022-08-19T07:32:13;2;1;
54869;PMS5003;40756;-37.950;145.008;2022-08-19T07:34:42;2;2;
54869;PMS5003;40756;-37.950;145.008;2022-08-19T07:37:12;1;1;
54869;PMS5003;40756;-37.950;145.008;2022-08-19T07:39:42;4;4;
54869;PMS5003;40756;-37.950;145.008;2022-08-19T07:42:12;1;1;
54869;PMS5003;40756;-37.950;145.008;2022-08-19T07:44:41;3;2;
54869;PMS5003;40756;-37.950;145.008;2022-08-19T07:47:11;2;2;
54869;PMS5003;40756;-37.950;145.008;2022-08-19T07:49:41;3;3;
54869;PMS5003;40756;-37.950;145.008;2022-08-19T07:52:10;3;2;
54869;PMS5003;40756;-37.950;145.008;2022-08-19T07:54:40;2;2;
54869;PMS5003;40756;-37.950;145.008;2022-08-19T07:57:09;2;2;
54869;PMS5003;40756;-37.950;145.008;2022-08-19T07:59:39;3;2;
54869;PMS5003;40756;-37.950;145.008;2022-08-19T08:02:09;2;2;
54869;PMS5003;40756;-37.950;145.008;2022-08-19T08:04:38;1;1;
54869;PMS5003;40756;-37.950;145.008;2022-08-19T08:07:08;2;1;
54869;PMS5003;40756;-37.950;145.008;2022-08-19T08:09:41;2;2;
54869;PMS5003;40756;-37.950;145.008;2022-08-19T08:12:13;1;1;
54869;PMS5003;40756;-37.950;145.008;2022-08-19T08:14:46;4;3;
54869;PMS5003;40756;-37.950;145.008;2022-08-19T08:17:18;1;1;
54869;PMS5003;40756;-37.950;145.008;2022-08-19T08:19:51;2;1;
54869;PMS5003;40756;-37.950;145.008;2022-08-19T08:22:22;5;4;
54869;PMS5003;40756;-37.950;145.008;2022-08-19T08:24:52;3;2;
54869;PMS5003;40756;-37.950;145.008;2022-08-19T08:27:21;1;1;
54869;PMS5003;40756;-37.950;145.008;2022-08-19T08:29:51;1;1;
54869;PMS5003;40756;-37.950;145.008;2022-08-19T08:32:21;4;3;
54869;PMS5003;40756;-37.950;145.008;2022-08-19T08:34:50;1;1;
54869;PMS5003;40756;-37.950;145.008;2022-08-19T08:37:21;1;1;
54869;PMS5003;40756;-37.950;145.008;2022-08-19T08:39:50;2;2;
54869;PMS5003;40756;-37.950;145.008;2022-08-19T08:42:21;2;2;
54869;PMS5003;40756;-37.950;145.008;2022-08-19T08:44:58;2;2;
54869;PMS5003;40756;-37.950;145.008;2022-08-19T08:47:31;0;0;
54869;PMS5003;40756;-37.950;145.008;2022-08-19T08:50:04;4;3;
54869;PMS5003;40756;-37.950;145.008;2022-08-19T08:52:39;1;1;
54869;PMS5003;40756;-37.950;145.008;2022-08-19T08:55:15;1;1;
54869;PMS5003;40756;-37.950;145.008;2022-08-19T08:57:50;1;1;
54869;PMS5003;40756;-37.950;145.008;2022-08-19T09:00:26;1;1;
54869;PMS5003;40756;-37.950;145.008;2022-08-19T09:02:58;4;4;
54869;PMS5003;40756;-37.950;145.008;2022-08-19T09:05:32;3;3;
54869;PMS5003;40756;-37.950;145.008;2022-08-19T09:08:10;2;2;
54869;PMS5003;40756;-37.950;145.008;2022-08-19T09:10:49;6;5;
54869;PMS5003;40756;-37.950;145.008;2022-08-19T09:13:22;4;3;
54869;PMS5003;40756;-37.950;145.008;2022-08-19T09:16:01;4;3;
54869;PMS5003;40756;-37.950;145.008;2022-08-19T09:18:39;4;4;
54869;PMS5003;40756;-37.950;145.008;2022-08-19T09:21:11;6;6;
54869;PMS5003;40756;-37.950;145.008;2022-08-19T09:23:41;2;2;
54869;PMS5003;40756;-37.950;145.008;2022-08-19T09:26:12;1;1;
54869;PMS5003;40756;-37.950;145.008;2022-08-19T09:28:44;4;3;
54869;PMS5003;40756;-37.950;145.008;2022-08-19T09:31:18;5;3;
54869;PMS5003;40756;-37.950;145.008;2022-08-19T09:33:50;5;3;
54869;PMS5003;40756;-37.950;145.008;2022-08-19T09:36:21;5;5;
54869;PMS5003;40756;-37.950;145.008;2022-08-19T09:38:52;1;1;
54869;PMS5003;40756;-37.950;145.008;2022-08-19T09:41:23;3;3;
54869;PMS5003;40756;-37.950;145.008;2022-08-19T09:43:58;4;3;
54869;PMS5003;40756;-37.950;145.008;2022-08-19T09:46:28;2;2;
54869;PMS5003;40756;-37.950;145.008;2022-08-19T09:48:59;3;3;
54869;PMS5003;40756;-37.950;145.008;2022-08-19T09:51:28;1;1;
54869;PMS5003;40756;-37.950;145.008;2022-08-19T09:54:00;4;3;
54869;PMS5003;40756;-37.950;145.008;2022-08-19T09:56:31;3;2;
54869;PMS5003;40756;-37.950;145.008;2022-08-19T09:59:01;4;3;
54869;PMS5003;40756;-37.950;145.008;2022-08-19T10:01:31;4;4;
54869;PMS5003;40756;-37.950;145.008;2022-08-19T10:04:01;3;2;
54869;PMS5003;40756;-37.950;145.008;2022-08-19T10:06:31;0;0;
54869;PMS5003;40756;-37.950;145.008;2022-08-19T10:09:01;4;3;
54869;PMS5003;40756;-37.950;145.008;2022-08-19T10:11:31;3;3;
54869;PMS5003;40756;-37.950;145.008;2022-08-19T10:14:02;3;3;
54869;PMS5003;40756;-37.950;145.008;2022-08-19T10:16:32;5;4;
54869;PMS5003;40756;-37.950;145.008;2022-08-19T10:19:03;2;2;
54869;PMS5003;40756;-37.950;145.008;2022-08-19T10:21:33;4;4;
54869;PMS5003;40756;-37.950;145.008;2022-08-19T10:24:04;3;3;
54869;PMS5003;40756;-37.950;145.008;2022-08-19T10:26:35;2;2;
54869;PMS5003;40756;-37.950;145.008;2022-08-19T10:29:07;3;3;
54869;PMS5003;40756;-37.950;145.008;2022-08-19T10:31:37;9;9;
54869;PMS5003;40756;-37.950;145.008;2022-08-19T10:34:07;16;16;
54869;PMS5003;40756;-37.950;145.008;2022-08-19T10:36:37;19;18;
54869;PMS5003;40756;-37.950;145.008;2022-08-19T10:39:07;23;20;
54869;PMS5003;40756;-37.950;145.008;2022-08-19T10:41:38;19;15;
54869;PMS5003;40756;-37.950;145.008;2022-08-19T10:44:09;14;12;
54869;PMS5003;40756;-37.950;145.008;2022-08-19T10:46:40;17;16;
54869;PMS5003;40756;-37.950;145.008;2022-08-19T10:49:11;15;13;
54869;PMS5003;40756;-37.950;145.008;2022-08-19T10:51:41;16;11;
54869;PMS5003;40756;-37.950;145.008;2022-08-19T10:54:10;11;10;
54869;PMS5003;40756;-37.950;145.008;2022-08-19T10:56:40;8;8;
54869;PMS5003;40756;-37.950;145.008;2022-08-19T10:59:09;4;4;
54869;PMS5003;40756;-37.950;145.008;2022-08-19T11:01:39;5;5;
54869;PMS5003;40756;-37.950;145.008;2022-08-19T11:04:10;8;6;
54869;PMS5003;40756;-37.950;145.008;2022-08-19T11:06:41;7;6;
54869;PMS5003;40756;-37.950;145.008;2022-08-19T11:09:11;6;6;
54869;PMS5003;40756;-37.950;145.008;2022-08-19T11:11:41;6;6;
54869;PMS5003;40756;-37.950;145.008;2022-08-19T11:14:13;8;7;
54869;PMS5003;40756;-37.950;145.008;2022-08-19T11:16:44;4;4;
54869;PMS5003;40756;-37.950;145.008;2022-08-19T11:19:14;7;5;
54869;PMS5003;40756;-37.950;145.008;2022-08-19T11:21:47;5;5;
54869;PMS5003;40756;-37.950;145.008;2022-08-19T11:24:19;12;12;
54869;PMS5003;40756;-37.950;145.008;2022-08-19T11:26:52;15;15;
54869;PMS5003;40756;-37.950;145.008;2022-08-19T11:29:27;12;10;
54869;PMS5003;40756;-37.950;145.008;2022-08-19T11:31:58;9;9;
54869;PMS5003;40756;-37.950;145.008;2022-08-19T11:34:30;6;6;
54869;PMS5003;40756;-37.950;145.008;2022-08-19T11:37:00;6;6;
54869;PMS5003;40756;-37.950;145.008;2022-08-19T11:39:31;5;4;
54869;PMS5003;40756;-37.950;145.008;2022-08-19T11:42:02;6;6;
54869;PMS5003;40756;-37.950;145.008;2022-08-19T11:44:34;5;4;
54869;PMS5003;40756;-37.950;145.008;2022-08-19T11:47:03;4;4;
54869;PMS5003;40756;-37.950;145.008;2022-08-19T11:49:33;5;4;
54869;PMS5003;40756;-37.950;145.008;2022-08-19T11:52:03;4;4;
54869;PMS5003;40756;-37.950;145.008;2022-08-19T11:54:32;8;6;
54869;PMS5003;40756;-37.950;145.008;2022-08-19T11:57:02;8;8;
54869;PMS5003;40756;-37.950;145.008;2022-08-19T11:59:32;12;10;
54869;PMS5003;40756;-37.950;145.008;2022-08-19T12:02:02;9;9;
54869;PMS5003;40756;-37.950;145.008;2022-08-19T12:04:32;4;4;
54869;PMS5003;40756;-37.950;145.008;2022-08-19T12:07:03;4;4;
54869;PMS5003;40756;-37.950;145.008;2022-08-19T12:09:32;5;4;
54869;PMS5003;40756;-37.950;145.008;2022-08-19T12:12:02;4;4;
54869;PMS5003;40756;-37.950;145.008;2022-08-19T12:14:32;4;3;
54869;PMS5003;40756;-37.950;145.008;2022-08-19T12:17:03;5;4;
54869;PMS5003;40756;-37.950;145.008;2022-08-19T12:19:33;3;2;
54869;PMS5003;40756;-37.950;145.008;2022-08-19T12:22:05;4;4;
54869;PMS5003;40756;-37.950;145.008;2022-08-19T12:24:36;3;3;
54869;PMS5003;40756;-37.950;145.008;2022-08-19T12:27:05;2;2;
54869;PMS5003;40756;-37.950;145.008;2022-08-19T12:29:35;2;2;
54869;PMS5003;40756;-37.950;145.008;2022-08-19T12:32:05;1;1;
54869;PMS5003;40756;-37.950;145.008;2022-08-19T12:34:35;2;2;
54869;PMS5003;40756;-37.950;145.008;2022-08-19T12:37:05;2;2;
54869;PMS5003;40756;-37.950;145.008;2022-08-19T12:39:36;3;2;
54869;PMS5003;40756;-37.950;145.008;2022-08-19T12:42:08;1;1;
54869;PMS5003;40756;-37.950;145.008;2022-08-19T12:44:40;2;1;
54869;PMS5003;40756;-37.950;145.008;2022-08-19T12:47:11;6;6;
54869;PMS5003;40756;-37.950;145.008;2022-08-19T12:49:41;4;3;
54869;PMS5003;40756;-37.950;145.008;2022-08-19T12:52:10;1;1;
54869;PMS5003;40756;-37.950;145.008;2022-08-19T12:54:40;4;4;
54869;PMS5003;40756;-37.950;145.008;2022-08-19T12:57:10;4;3;
54869;PMS5003;40756;-37.950;145.008;2022-08-19T12:59:40;3;3;
54869;PMS5003;40756;-37.950;145.008;2022-08-19T13:02:10;1;0;
54869;PMS5003;40756;-37.950;145.008;2022-08-19T13:04:40;2;1;
54869;PMS5003;40756;-37.950;145.008;2022-08-19T13:07:10;1;1;
54869;PMS5003;40756;-37.950;145.008;2022-08-19T13:09:39;5;4;
54869;PMS5003;40756;-37.950;145.008;2022-08-19T13:12:09;4;3;
54869;PMS5003;40756;-37.950;145.008;2022-08-19T13:14:38;2;2;
54869;PMS5003;40756;-37.950;145.008;2022-08-19T13:17:09;8;7;
54869;PMS5003;40756;-37.950;145.008;2022-08-19T13:19:39;11;10;
54869;PMS5003;40756;-37.950;145.008;2022-08-19T13:22:09;2;2;
54869;PMS5003;40756;-37.950;145.008;2022-08-19T13:24:40;3;2;
54869;PMS5003;40756;-37.950;145.008;2022-08-19T13:27:10;1;1;
54869;PMS5003;40756;-37.950;145.008;2022-08-19T13:29:40;5;5;
54869;PMS5003;40756;-37.950;145.008;2022-08-19T13:32:10;11;9;
54869;PMS5003;40756;-37.950;145.008;2022-08-19T13:34:39;22;21;
54869;PMS5003;40756;-37.950;145.008;2022-08-19T13:37:09;22;20;
54869;PMS5003;40756;-37.950;145.008;2022-08-19T13:39:38;21;19;
54869;PMS5003;40756;-37.950;145.008;2022-08-19T13:42:08;26;25;
54869;PMS5003;40756;-37.950;145.008;2022-08-19T13:44:38;18;16;
54869;PMS5003;40756;-37.950;145.008;2022-08-19T13:47:07;15;15;
54869;PMS5003;40756;-37.950;145.008;2022-08-19T13:49:37;6;6;
54869;PMS5003;40756;-37.950;145.008;2022-08-19T13:52:07;6;6;
54869;PMS5003;40756;-37.950;145.008;2022-08-19T13:54:37;4;3;
54869;PMS5003;40756;-37.950;145.008;2022-08-19T13:57:06;3;3;
54869;PMS5003;40756;-37.950;145.008;2022-08-19T13:59:36;3;3;
54869;PMS5003;40756;-37.950;145.008;2022-08-19T14:02:06;4;4;
54869;PMS5003;40756;-37.950;145.008;2022-08-19T14:05:49;3;3;
54869;PMS5003;40756;-37.950;145.008;2022-08-19T14:08:18;4;3;
54869;PMS5003;40756;-37.950;145.008;2022-08-19T14:10:48;1;1;
54869;PMS5003;40756;-37.950;145.008;2022-08-19T14:13:19;3;3;
54869;PMS5003;40756;-37.950;145.008;2022-08-19T14:15:50;4;4;
54869;PMS5003;40756;-37.950;145.008;2022-08-19T14:18:20;3;3;
54869;PMS5003;40756;-37.950;145.008;2022-08-19T14:20:50;4;3;
54869;PMS5003;40756;-37.950;145.008;2022-08-19T14:23:20;1;1;
54869;PMS5003;40756;-37.950;145.008;2022-08-19T14:25:50;1;1;
54869;PMS5003;40756;-37.950;145.008;2022-08-19T14:28:20;1;1;
54869;PMS5003;40756;-37.950;145.008;2022-08-19T14:30:49;1;1;
54869;PMS5003;40756;-37.950;145.008;2022-08-19T14:33:19;1;1;
54869;PMS5003;40756;-37.950;145.008;2022-08-19T14:35:49;2;2;
54869;PMS5003;40756;-37.950;145.008;2022-08-19T14:38:19;2;1;
54869;PMS5003;40756;-37.950;145.008;2022-08-19T14:40:48;0;0;
54869;PMS5003;40756;-37.950;145.008;2022-08-19T14:43:18;1;1;
54869;PMS5003;40756;-37.950;145.008;2022-08-19T14:45:48;1;1;
54869;PMS5003;40756;-37.950;145.008;2022-08-19T14:48:17;3;3;
54869;PMS5003;40756;-37.950;145.008;2022-08-19T14:50:47;3;3;
54869;PMS5003;40756;-37.950;145.008;2022-08-19T14:53:17;5;4;
54869;PMS5003;40756;-37.950;145.008;2022-08-19T14:55:47;5;3;
54869;PMS5003;40756;-37.950;145.008;2022-08-19T14:58:16;2;2;
54869;PMS5003;40756;-37.950;145.008;2022-08-19T15:00:46;2;2;
54869;PMS5003;40756;-37.950;145.008;2022-08-19T15:03:16;3;3;
54869;PMS5003;40756;-37.950;145.008;2022-08-19T15:05:46;5;4;
54869;PMS5003;40756;-37.950;145.008;2022-08-19T15:08:16;2;1;
54869;PMS5003;40756;-37.950;145.008;2022-08-19T15:10:45;2;2;
54869;PMS5003;40756;-37.950;145.008;2022-08-19T15:13:15;3;3;
54869;PMS5003;40756;-37.950;145.008;2022-08-19T15:15:45;2;2;
54869;PMS5003;40756;-37.950;145.008;2022-08-19T15:18:14;1;1;
54869;PMS5003;40756;-37.950;145.008;2022-08-19T15:20:44;0;0;
54869;PMS5003;40756;-37.950;145.008;2022-08-19T15:23:14;0;0;
54869;PMS5003;40756;-37.950;145.008;2022-08-19T15:25:46;2;1;
54869;PMS5003;40756;-37.950;145.008;2022-08-19T15:28:17;2;2;
54869;PMS5003;40756;-37.950;145.008;2022-08-19T15:30:47;0;0;
54869;PMS5003;40756;-37.950;145.008;2022-08-19T15:33:17;1;0;
54869;PMS5003;40756;-37.950;145.008;2022-08-19T15:35:47;0;0;
54869;PMS5003;40756;-37.950;145.008;2022-08-19T15:38:17;1;1;
54869;PMS5003;40756;-37.950;145.008;2022-08-19T15:40:48;1;1;
54869;PMS5003;40756;-37.950;145.008;2022-08-19T15:43:19;0;0;
54869;PMS5003;40756;-37.950;145.008;2022-08-19T15:45:49;2;2;
54869;PMS5003;40756;-37.950;145.008;2022-08-19T15:48:18;0;0;
54869;PMS5003;40756;-37.950;145.008;2022-08-19T15:50:48;0;0;
54869;PMS5003;40756;-37.950;145.008;2022-08-19T15:53:18;0;0;
54869;PMS5003;40756;-37.950;145.008;2022-08-19T15:55:48;0;0;
54869;PMS5003;40756;-37.950;145.008;2022-08-19T15:58:18;0;0;
54869;PMS5003;40756;-37.950;145.008;2022-08-19T16:00:47;1;1;
54869;PMS5003;40756;-37.950;145.008;2022-08-19T16:03:17;0;0;
54869;PMS5003;40756;-37.950;145.008;2022-08-19T16:05:46;0;0;
54869;PMS5003;40756;-37.950;145.008;2022-08-19T16:08:18;0;0;
54869;PMS5003;40756;-37.950;145.008;2022-08-19T16:10:48;0;0;
54869;PMS5003;40756;-37.950;145.008;2022-08-19T16:13:17;0;0;
54869;PMS5003;40756;-37.950;145.008;2022-08-19T16:15:47;0;0;
54869;PMS5003;40756;-37.950;145.008;2022-08-19T16:18:17;0;0;
54869;PMS5003;40756;-37.950;145.008;2022-08-19T16:20:47;0;0;
54869;PMS5003;40756;-37.950;145.008;2022-08-19T16:23:16;0;0;